sensor_id;sensor_type;location;lat;lon;timestamp;P1;durP1;ratioP1;P2;durP2;ratioP2
43519;SDS011;46848;51.980;5.918;2022-07-19T00:01:43;8.10;;;4.65;;
43519;SDS011;46848;51.980;5.918;2022-07-19T00:04:09;6.30;;;3.50;;
43519;SDS011;46848;51.980;5.918;2022-07-19T00:06:35;4.88;;;3.22;;
43519;SDS011;46848;51.980;5.918;2022-07-19T00:09:01;5.03;;;3.00;;
43519;SDS011;46848;51.980;5.918;2022-07-19T00:11:27;8.20;;;5.57;;
43519;SDS011;46848;51.980;5.918;2022-07-19T00:13:53;6.97;;;4.57;;
43519;SDS011;46848;51.980;5.918;2022-07-19T00:16:19;7.93;;;4.68;;
43519;SDS011;46848;51.980;5.918;2022-07-19T00:18:44;7.03;;;5.00;;
43519;SDS011;46848;51.980;5.918;2022-07-19T00:21:10;6.35;;;4.32;;
43519;SDS011;46848;51.980;5.918;2022-07-19T00:23:36;4.88;;;3.38;;
43519;SDS011;46848;51.980;5.918;2022-07-19T00:26:02;3.88;;;2.60;;
43519;SDS011;46848;51.980;5.918;2022-07-19T00:28:28;4.35;;;2.53;;
43519;SDS011;46848;51.980;5.918;2022-07-19T00:30:54;5.63;;;3.28;;
43519;SDS011;46848;51.980;5.918;2022-07-19T00:33:19;5.35;;;3.13;;
43519;SDS011;46848;51.980;5.918;2022-07-19T00:35:45;6.05;;;2.67;;
43519;SDS011;46848;51.980;5.918;2022-07-19T00:38:11;5.40;;;2.78;;
43519;SDS011;46848;51.980;5.918;2022-07-19T00:40:38;4.82;;;2.25;;
43519;SDS011;46848;51.980;5.918;2022-07-19T00:43:06;4.22;;;2.63;;
43519;SDS011;46848;51.980;5.918;2022-07-19T00:45:35;6.22;;;2.85;;
43519;SDS011;46848;51.980;5.918;2022-07-19T00:48:01;6.30;;;2.67;;
43519;SDS011;46848;51.980;5.918;2022-07-19T00:50:28;5.18;;;3.45;;
43519;SDS011;46848;51.980;5.918;2022-07-19T00:52:58;6.95;;;4.25;;
43519;SDS011;46848;51.980;5.918;2022-07-19T00:55:27;7.15;;;4.68;;
43519;SDS011;46848;51.980;5.918;2022-07-19T00:57:57;6.50;;;3.88;;
43519;SDS011;46848;51.980;5.918;2022-07-19T01:00:24;5.85;;;3.38;;
43519;SDS011;46848;51.980;5.918;2022-07-19T01:02:53;5.65;;;3.22;;
43519;SDS011;46848;51.980;5.918;2022-07-19T01:05:18;5.03;;;2.85;;
43519;SDS011;46848;51.980;5.918;2022-07-19T01:07:44;6.63;;;2.90;;
43519;SDS011;46848;51.980;5.918;2022-07-19T01:10:11;3.95;;;2.25;;
43519;SDS011;46848;51.980;5.918;2022-07-19T01:12:38;4.03;;;2.42;;
43519;SDS011;46848;51.980;5.918;2022-07-19T01:15:14;4.30;;;2.22;;
43519;SDS011;46848;51.980;5.918;2022-07-19T01:17:45;4.40;;;2.67;;
43519;SDS011;46848;51.980;5.918;2022-07-19T01:20:12;7.78;;;4.28;;
43519;SDS011;46848;51.980;5.918;2022-07-19T01:22:39;10.00;;;6.60;;
43519;SDS011;46848;51.980;5.918;2022-07-19T01:25:06;8.95;;;4.57;;
43519;SDS011;46848;51.980;5.918;2022-07-19T01:27:42;7.45;;;4.50;;
43519;SDS011;46848;51.980;5.918;2022-07-19T01:30:14;6.50;;;3.47;;
43519;SDS011;46848;51.980;5.918;2022-07-19T01:35:08;5.78;;;3.90;;
43519;SDS011;46848;51.980;5.918;2022-07-19T01:37:34;6.13;;;3.83;;
43519;SDS011;46848;51.980;5.918;2022-07-19T01:40:01;6.55;;;3.55;;
43519;SDS011;46848;51.980;5.918;2022-07-19T01:42:31;5.38;;;3.58;;
43519;SDS011;46848;51.980;5.918;2022-07-19T01:44:57;7.05;;;4.03;;
43519;SDS011;46848;51.980;5.918;2022-07-19T01:47:23;4.97;;;3.08;;
43519;SDS011;46848;51.980;5.918;2022-07-19T01:49:49;6.07;;;3.35;;
43519;SDS011;46848;51.980;5.918;2022-07-19T01:52:15;5.57;;;3.38;;
43519;SDS011;46848;51.980;5.918;2022-07-19T01:54:40;6.22;;;4.13;;
43519;SDS011;46848;51.980;5.918;2022-07-19T01:57:06;8.73;;;5.20;;
43519;SDS011;46848;51.980;5.918;2022-07-19T01:59:32;6.10;;;3.45;;
43519;SDS011;46848;51.980;5.918;2022-07-19T02:01:57;5.72;;;2.78;;
43519;SDS011;46848;51.980;5.918;2022-07-19T02:04:23;4.93;;;2.63;;
43519;SDS011;46848;51.980;5.918;2022-07-19T02:06:48;5.47;;;2.38;;
43519;SDS011;46848;51.980;5.918;2022-07-19T02:09:14;4.85;;;2.80;;
43519;SDS011;46848;51.980;5.918;2022-07-19T02:11:40;4.30;;;2.70;;
43519;SDS011;46848;51.980;5.918;2022-07-19T02:14:09;5.43;;;2.95;;
43519;SDS011;46848;51.980;5.918;2022-07-19T02:16:35;5.35;;;3.05;;
43519;SDS011;46848;51.980;5.918;2022-07-19T02:19:02;5.60;;;3.00;;
43519;SDS011;46848;51.980;5.918;2022-07-19T02:21:28;5.53;;;3.40;;
43519;SDS011;46848;51.980;5.918;2022-07-19T02:23:54;6.05;;;2.97;;
43519;SDS011;46848;51.980;5.918;2022-07-19T02:26:20;5.63;;;3.00;;
43519;SDS011;46848;51.980;5.918;2022-07-19T02:28:45;4.50;;;2.72;;
43519;SDS011;46848;51.980;5.918;2022-07-19T02:31:11;4.80;;;2.88;;
43519;SDS011;46848;51.980;5.918;2022-07-19T02:33:37;6.93;;;3.10;;
43519;SDS011;46848;51.980;5.918;2022-07-19T02:36:02;6.75;;;3.47;;
43519;SDS011;46848;51.980;5.918;2022-07-19T02:38:31;5.88;;;3.03;;
43519;SDS011;46848;51.980;5.918;2022-07-19T02:40:57;5.57;;;3.33;;
43519;SDS011;46848;51.980;5.918;2022-07-19T02:43:23;6.28;;;3.88;;
43519;SDS011;46848;51.980;5.918;2022-07-19T02:45:49;7.22;;;3.72;;
43519;SDS011;46848;51.980;5.918;2022-07-19T02:48:15;6.50;;;3.72;;
43519;SDS011;46848;51.980;5.918;2022-07-19T02:50:40;5.90;;;4.10;;
43519;SDS011;46848;51.980;5.918;2022-07-19T02:53:06;8.55;;;6.03;;
43519;SDS011;46848;51.980;5.918;2022-07-19T02:55:32;7.25;;;5.18;;
43519;SDS011;46848;51.980;5.918;2022-07-19T02:57:58;7.53;;;4.65;;
43519;SDS011;46848;51.980;5.918;2022-07-19T03:00:24;6.47;;;4.55;;
43519;SDS011;46848;51.980;5.918;2022-07-19T03:02:50;6.57;;;3.85;;
43519;SDS011;46848;51.980;5.918;2022-07-19T03:05:16;8.05;;;4.50;;
43519;SDS011;46848;51.980;5.918;2022-07-19T03:07:42;8.77;;;4.18;;
43519;SDS011;46848;51.980;5.918;2022-07-19T03:10:08;10.95;;;5.50;;
43519;SDS011;46848;51.980;5.918;2022-07-19T03:12:34;10.45;;;6.75;;
43519;SDS011;46848;51.980;5.918;2022-07-19T03:15:00;9.55;;;5.80;;
43519;SDS011;46848;51.980;5.918;2022-07-19T03:17:26;8.75;;;5.03;;
43519;SDS011;46848;51.980;5.918;2022-07-19T03:19:52;9.45;;;5.30;;
43519;SDS011;46848;51.980;5.918;2022-07-19T03:22:17;9.50;;;5.28;;
43519;SDS011;46848;51.980;5.918;2022-07-19T03:24:43;9.68;;;6.35;;
43519;SDS011;46848;51.980;5.918;2022-07-19T03:27:09;6.43;;;4.25;;
43519;SDS011;46848;51.980;5.918;2022-07-19T03:29:34;9.23;;;4.95;;
43519;SDS011;46848;51.980;5.918;2022-07-19T03:32:00;8.43;;;4.50;;
43519;SDS011;46848;51.980;5.918;2022-07-19T03:34:26;7.93;;;5.60;;
43519;SDS011;46848;51.980;5.918;2022-07-19T03:36:53;10.10;;;5.40;;
43519;SDS011;46848;51.980;5.918;2022-07-19T03:39:19;7.38;;;5.07;;
43519;SDS011;46848;51.980;5.918;2022-07-19T03:41:45;8.32;;;6.07;;
43519;SDS011;46848;51.980;5.918;2022-07-19T03:44:10;11.73;;;7.50;;
43519;SDS011;46848;51.980;5.918;2022-07-19T03:46:36;10.93;;;7.93;;
43519;SDS011;46848;51.980;5.918;2022-07-19T03:49:02;11.40;;;6.55;;
43519;SDS011;46848;51.980;5.918;2022-07-19T03:51:28;7.72;;;5.55;;
43519;SDS011;46848;51.980;5.918;2022-07-19T03:53:53;7.93;;;5.10;;
43519;SDS011;46848;51.980;5.918;2022-07-19T03:56:19;7.57;;;5.20;;
43519;SDS011;46848;51.980;5.918;2022-07-19T03:58:46;6.78;;;4.35;;
43519;SDS011;46848;51.980;5.918;2022-07-19T04:01:13;6.10;;;3.63;;
43519;SDS011;46848;51.980;5.918;2022-07-19T04:03:39;4.28;;;3.17;;
43519;SDS011;46848;51.980;5.918;2022-07-19T04:06:06;7.70;;;4.25;;
43519;SDS011;46848;51.980;5.918;2022-07-19T04:08:33;7.47;;;4.93;;
43519;SDS011;46848;51.980;5.918;2022-07-19T04:10:58;5.18;;;3.63;;
43519;SDS011;46848;51.980;5.918;2022-07-19T04:13:24;9.02;;;6.55;;
43519;SDS011;46848;51.980;5.918;2022-07-19T04:15:50;12.05;;;8.35;;
43519;SDS011;46848;51.980;5.918;2022-07-19T04:18:16;10.45;;;6.03;;
43519;SDS011;46848;51.980;5.918;2022-07-19T04:20:41;9.07;;;5.85;;
43519;SDS011;46848;51.980;5.918;2022-07-19T04:23:07;8.85;;;5.55;;
43519;SDS011;46848;51.980;5.918;2022-07-19T04:25:33;8.52;;;4.57;;
43519;SDS011;46848;51.980;5.918;2022-07-19T04:27:59;7.32;;;4.18;;
43519;SDS011;46848;51.980;5.918;2022-07-19T04:30:24;6.32;;;3.80;;
43519;SDS011;46848;51.980;5.918;2022-07-19T04:32:50;5.75;;;3.17;;
43519;SDS011;46848;51.980;5.918;2022-07-19T04:35:16;4.00;;;2.78;;
43519;SDS011;46848;51.980;5.918;2022-07-19T04:37:42;6.03;;;2.90;;
43519;SDS011;46848;51.980;5.918;2022-07-19T04:40:08;4.53;;;2.65;;
43519;SDS011;46848;51.980;5.918;2022-07-19T04:42:34;3.92;;;2.28;;
43519;SDS011;46848;51.980;5.918;2022-07-19T04:45:00;3.88;;;2.17;;
43519;SDS011;46848;51.980;5.918;2022-07-19T04:47:26;3.28;;;1.95;;
43519;SDS011;46848;51.980;5.918;2022-07-19T04:49:52;4.60;;;2.13;;
43519;SDS011;46848;51.980;5.918;2022-07-19T04:52:17;6.88;;;1.98;;
43519;SDS011;46848;51.980;5.918;2022-07-19T04:54:43;5.95;;;1.90;;
43519;SDS011;46848;51.980;5.918;2022-07-19T04:57:08;3.78;;;1.90;;
43519;SDS011;46848;51.980;5.918;2022-07-19T04:59:34;4.20;;;1.98;;
43519;SDS011;46848;51.980;5.918;2022-07-19T05:02:00;3.08;;;2.00;;
43519;SDS011;46848;51.980;5.918;2022-07-19T05:04:25;4.25;;;2.00;;
43519;SDS011;46848;51.980;5.918;2022-07-19T05:06:51;3.45;;;1.73;;
43519;SDS011;46848;51.980;5.918;2022-07-19T05:09:22;5.65;;;1.65;;
43519;SDS011;46848;51.980;5.918;2022-07-19T05:11:51;4.75;;;2.00;;
43519;SDS011;46848;51.980;5.918;2022-07-19T05:14:18;2.97;;;1.50;;
43519;SDS011;46848;51.980;5.918;2022-07-19T05:16:44;3.90;;;1.65;;
43519;SDS011;46848;51.980;5.918;2022-07-19T05:19:10;4.15;;;1.83;;
43519;SDS011;46848;51.980;5.918;2022-07-19T05:21:36;3.60;;;1.63;;
43519;SDS011;46848;51.980;5.918;2022-07-19T05:24:02;5.45;;;1.83;;
43519;SDS011;46848;51.980;5.918;2022-07-19T05:26:28;4.53;;;2.10;;
43519;SDS011;46848;51.980;5.918;2022-07-19T05:28:55;4.35;;;2.03;;
43519;SDS011;46848;51.980;5.918;2022-07-19T05:31:20;6.32;;;2.20;;
43519;SDS011;46848;51.980;5.918;2022-07-19T05:33:46;5.53;;;1.83;;
43519;SDS011;46848;51.980;5.918;2022-07-19T05:36:12;4.13;;;1.88;;
43519;SDS011;46848;51.980;5.918;2022-07-19T05:38:38;4.72;;;2.13;;
43519;SDS011;46848;51.980;5.918;2022-07-19T05:41:04;5.20;;;1.95;;
43519;SDS011;46848;51.980;5.918;2022-07-19T05:43:30;11.95;;;3.28;;
43519;SDS011;46848;51.980;5.918;2022-07-19T05:45:56;6.93;;;2.67;;
43519;SDS011;46848;51.980;5.918;2022-07-19T05:48:21;5.35;;;2.65;;
43519;SDS011;46848;51.980;5.918;2022-07-19T05:50:47;5.97;;;2.60;;
43519;SDS011;46848;51.980;5.918;2022-07-19T05:53:13;4.88;;;2.92;;
43519;SDS011;46848;51.980;5.918;2022-07-19T05:55:38;5.45;;;2.50;;
43519;SDS011;46848;51.980;5.918;2022-07-19T05:58:04;6.35;;;2.28;;
43519;SDS011;46848;51.980;5.918;2022-07-19T06:00:30;3.00;;;2.20;;
43519;SDS011;46848;51.980;5.918;2022-07-19T06:02:55;6.78;;;2.58;;
43519;SDS011;46848;51.980;5.918;2022-07-19T06:05:21;3.35;;;2.25;;
43519;SDS011;46848;51.980;5.918;2022-07-19T06:07:46;5.60;;;2.58;;
43519;SDS011;46848;51.980;5.918;2022-07-19T06:10:12;4.78;;;2.30;;
43519;SDS011;46848;51.980;5.918;2022-07-19T06:12:38;6.03;;;2.22;;
43519;SDS011;46848;51.980;5.918;2022-07-19T06:15:04;3.70;;;2.25;;
43519;SDS011;46848;51.980;5.918;2022-07-19T06:17:30;6.22;;;2.53;;
43519;SDS011;46848;51.980;5.918;2022-07-19T06:19:55;3.63;;;2.20;;
43519;SDS011;46848;51.980;5.918;2022-07-19T06:22:21;7.50;;;2.75;;
43519;SDS011;46848;51.980;5.918;2022-07-19T06:24:46;5.38;;;2.33;;
43519;SDS011;46848;51.980;5.918;2022-07-19T06:27:12;5.35;;;2.95;;
43519;SDS011;46848;51.980;5.918;2022-07-19T06:29:38;8.80;;;3.25;;
43519;SDS011;46848;51.980;5.918;2022-07-19T06:32:03;6.43;;;2.95;;
43519;SDS011;46848;51.980;5.918;2022-07-19T06:34:29;5.35;;;2.83;;
43519;SDS011;46848;51.980;5.918;2022-07-19T06:36:55;6.22;;;2.75;;
43519;SDS011;46848;51.980;5.918;2022-07-19T06:39:20;7.00;;;3.30;;
43519;SDS011;46848;51.980;5.918;2022-07-19T06:41:46;5.18;;;2.72;;
43519;SDS011;46848;51.980;5.918;2022-07-19T06:44:12;6.60;;;3.30;;
43519;SDS011;46848;51.980;5.918;2022-07-19T06:46:38;6.30;;;3.40;;
43519;SDS011;46848;51.980;5.918;2022-07-19T06:49:04;7.00;;;3.28;;
43519;SDS011;46848;51.980;5.918;2022-07-19T06:51:29;9.48;;;3.50;;
43519;SDS011;46848;51.980;5.918;2022-07-19T06:53:55;6.18;;;3.30;;
43519;SDS011;46848;51.980;5.918;2022-07-19T06:56:21;6.45;;;3.40;;
43519;SDS011;46848;51.980;5.918;2022-07-19T06:58:47;10.13;;;3.45;;
43519;SDS011;46848;51.980;5.918;2022-07-19T07:01:13;6.93;;;2.80;;
43519;SDS011;46848;51.980;5.918;2022-07-19T07:03:39;6.68;;;2.75;;
43519;SDS011;46848;51.980;5.918;2022-07-19T07:06:04;5.93;;;3.10;;
43519;SDS011;46848;51.980;5.918;2022-07-19T07:08:31;7.28;;;3.45;;
43519;SDS011;46848;51.980;5.918;2022-07-19T07:10:57;7.55;;;3.20;;
43519;SDS011;46848;51.980;5.918;2022-07-19T07:13:22;7.10;;;3.05;;
43519;SDS011;46848;51.980;5.918;2022-07-19T07:15:48;10.00;;;3.25;;
43519;SDS011;46848;51.980;5.918;2022-07-19T07:18:13;6.68;;;3.53;;
43519;SDS011;46848;51.980;5.918;2022-07-19T07:20:40;7.35;;;3.00;;
43519;SDS011;46848;51.980;5.918;2022-07-19T07:23:05;6.50;;;2.97;;
43519;SDS011;46848;51.980;5.918;2022-07-19T07:25:31;7.13;;;3.40;;
43519;SDS011;46848;51.980;5.918;2022-07-19T07:27:57;5.70;;;2.97;;
43519;SDS011;46848;51.980;5.918;2022-07-19T07:30:23;6.47;;;2.63;;
43519;SDS011;46848;51.980;5.918;2022-07-19T07:32:48;8.65;;;3.05;;
43519;SDS011;46848;51.980;5.918;2022-07-19T07:35:14;5.72;;;2.45;;
43519;SDS011;46848;51.980;5.918;2022-07-19T07:37:40;6.03;;;2.67;;
43519;SDS011;46848;51.980;5.918;2022-07-19T07:40:05;5.28;;;2.50;;
43519;SDS011;46848;51.980;5.918;2022-07-19T07:42:31;6.47;;;2.78;;
43519;SDS011;46848;51.980;5.918;2022-07-19T07:44:58;7.20;;;2.65;;
43519;SDS011;46848;51.980;5.918;2022-07-19T07:47:25;4.95;;;2.63;;
43519;SDS011;46848;51.980;5.918;2022-07-19T07:49:50;5.68;;;2.58;;
43519;SDS011;46848;51.980;5.918;2022-07-19T07:52:16;6.70;;;2.90;;
43519;SDS011;46848;51.980;5.918;2022-07-19T07:54:42;5.00;;;2.28;;
43519;SDS011;46848;51.980;5.918;2022-07-19T07:57:07;7.03;;;2.17;;
43519;SDS011;46848;51.980;5.918;2022-07-19T07:59:33;5.80;;;2.63;;
43519;SDS011;46848;51.980;5.918;2022-07-19T08:01:59;5.18;;;2.38;;
43519;SDS011;46848;51.980;5.918;2022-07-19T08:04:25;4.40;;;2.33;;
43519;SDS011;46848;51.980;5.918;2022-07-19T08:06:51;7.57;;;2.50;;
43519;SDS011;46848;51.980;5.918;2022-07-19T08:09:17;5.35;;;1.77;;
43519;SDS011;46848;51.980;5.918;2022-07-19T08:11:43;4.55;;;1.90;;
43519;SDS011;46848;51.980;5.918;2022-07-19T08:14:09;9.13;;;2.20;;
43519;SDS011;46848;51.980;5.918;2022-07-19T08:16:34;6.63;;;1.92;;
43519;SDS011;46848;51.980;5.918;2022-07-19T08:19:00;4.13;;;2.00;;
43519;SDS011;46848;51.980;5.918;2022-07-19T08:21:26;6.63;;;2.15;;
43519;SDS011;46848;51.980;5.918;2022-07-19T08:23:52;4.60;;;1.63;;
43519;SDS011;46848;51.980;5.918;2022-07-19T08:26:18;7.72;;;1.95;;
43519;SDS011;46848;51.980;5.918;2022-07-19T08:28:45;5.28;;;2.25;;
43519;SDS011;46848;51.980;5.918;2022-07-19T08:31:12;4.55;;;1.88;;
43519;SDS011;46848;51.980;5.918;2022-07-19T08:33:39;3.63;;;2.00;;
43519;SDS011;46848;51.980;5.918;2022-07-19T08:36:05;5.78;;;2.03;;
43519;SDS011;46848;51.980;5.918;2022-07-19T08:38:31;4.38;;;1.88;;
43519;SDS011;46848;51.980;5.918;2022-07-19T08:40:57;4.70;;;1.98;;
43519;SDS011;46848;51.980;5.918;2022-07-19T08:43:25;8.55;;;2.13;;
43519;SDS011;46848;51.980;5.918;2022-07-19T08:45:51;5.97;;;2.05;;
43519;SDS011;46848;51.980;5.918;2022-07-19T08:48:18;3.63;;;1.95;;
43519;SDS011;46848;51.980;5.918;2022-07-19T08:50:45;4.30;;;1.77;;
43519;SDS011;46848;51.980;5.918;2022-07-19T08:53:12;5.53;;;1.80;;
43519;SDS011;46848;51.980;5.918;2022-07-19T08:55:39;3.75;;;1.80;;
43519;SDS011;46848;51.980;5.918;2022-07-19T08:58:05;7.50;;;2.00;;
43519;SDS011;46848;51.980;5.918;2022-07-19T09:00:32;5.25;;;1.60;;
43519;SDS011;46848;51.980;5.918;2022-07-19T09:02:59;5.78;;;1.70;;
43519;SDS011;46848;51.980;5.918;2022-07-19T09:05:30;6.15;;;1.75;;
43519;SDS011;46848;51.980;5.918;2022-07-19T09:08:02;6.63;;;1.85;;
43519;SDS011;46848;51.980;5.918;2022-07-19T09:10:34;9.50;;;1.90;;
43519;SDS011;46848;51.980;5.918;2022-07-19T09:13:03;4.28;;;1.65;;
43519;SDS011;46848;51.980;5.918;2022-07-19T09:18:06;4.07;;;1.58;;
43519;SDS011;46848;51.980;5.918;2022-07-19T09:20:33;5.38;;;2.13;;
43519;SDS011;46848;51.980;5.918;2022-07-19T09:23:00;4.20;;;1.65;;
43519;SDS011;46848;51.980;5.918;2022-07-19T09:28:08;1.92;;;1.17;;
43519;SDS011;46848;51.980;5.918;2022-07-19T09:30:34;5.53;;;1.38;;
43519;SDS011;46848;51.980;5.918;2022-07-19T09:33:05;3.60;;;1.50;;
43519;SDS011;46848;51.980;5.918;2022-07-19T09:35:48;3.65;;;1.90;;
43519;SDS011;46848;51.980;5.918;2022-07-19T09:38:21;4.53;;;1.67;;
43519;SDS011;46848;51.980;5.918;2022-07-19T09:49:11;5.05;;;1.90;;
43519;SDS011;46848;51.980;5.918;2022-07-19T09:51:39;4.82;;;1.65;;
43519;SDS011;46848;51.980;5.918;2022-07-19T09:54:07;6.60;;;1.90;;
43519;SDS011;46848;51.980;5.918;2022-07-19T09:56:38;3.30;;;1.63;;
43519;SDS011;46848;51.980;5.918;2022-07-19T09:59:05;3.70;;;1.80;;
43519;SDS011;46848;51.980;5.918;2022-07-19T10:01:31;6.40;;;1.77;;
43519;SDS011;46848;51.980;5.918;2022-07-19T10:04:17;5.13;;;1.83;;
43519;SDS011;46848;51.980;5.918;2022-07-19T10:06:46;2.97;;;1.50;;
43519;SDS011;46848;51.980;5.918;2022-07-19T10:09:14;2.72;;;1.65;;
43519;SDS011;46848;51.980;5.918;2022-07-19T10:11:41;5.60;;;1.67;;
43519;SDS011;46848;51.980;5.918;2022-07-19T10:14:08;5.18;;;1.90;;
43519;SDS011;46848;51.980;5.918;2022-07-19T10:19:30;3.08;;;1.67;;
43519;SDS011;46848;51.980;5.918;2022-07-19T10:22:05;4.07;;;1.80;;
43519;SDS011;46848;51.980;5.918;2022-07-19T10:24:42;4.25;;;1.60;;
43519;SDS011;46848;51.980;5.918;2022-07-19T10:27:12;6.50;;;1.90;;
43519;SDS011;46848;51.980;5.918;2022-07-19T10:29:40;3.67;;;1.85;;
43519;SDS011;46848;51.980;5.918;2022-07-19T10:32:11;6.90;;;1.98;;
43519;SDS011;46848;51.980;5.918;2022-07-19T10:34:38;6.32;;;2.13;;
43519;SDS011;46848;51.980;5.918;2022-07-19T10:37:05;5.03;;;1.98;;
43519;SDS011;46848;51.980;5.918;2022-07-19T10:39:32;5.15;;;2.03;;
43519;SDS011;46848;51.980;5.918;2022-07-19T10:50:04;4.15;;;1.65;;
43519;SDS011;46848;51.980;5.918;2022-07-19T10:57:42;5.47;;;1.67;;
43519;SDS011;46848;51.980;5.918;2022-07-19T11:02:46;5.63;;;2.40;;
43519;SDS011;46848;51.980;5.918;2022-07-19T11:05:26;6.55;;;1.80;;
43519;SDS011;46848;51.980;5.918;2022-07-19T11:07:54;6.47;;;1.40;;
43519;SDS011;46848;51.980;5.918;2022-07-19T11:10:30;5.20;;;1.90;;
43519;SDS011;46848;51.980;5.918;2022-07-19T11:12:56;4.70;;;1.83;;
43519;SDS011;46848;51.980;5.918;2022-07-19T11:15:24;2.83;;;1.75;;
43519;SDS011;46848;51.980;5.918;2022-07-19T11:17:56;5.80;;;1.83;;
43519;SDS011;46848;51.980;5.918;2022-07-19T11:20:25;4.47;;;1.63;;
43519;SDS011;46848;51.980;5.918;2022-07-19T11:22:57;6.68;;;1.95;;
43519;SDS011;46848;51.980;5.918;2022-07-19T11:25:30;3.60;;;1.60;;
43519;SDS011;46848;51.980;5.918;2022-07-19T11:27:58;4.65;;;1.63;;
43519;SDS011;46848;51.980;5.918;2022-07-19T11:30:25;3.50;;;1.70;;
43519;SDS011;46848;51.980;5.918;2022-07-19T11:32:55;5.38;;;1.73;;
43519;SDS011;46848;51.980;5.918;2022-07-19T11:37:51;5.68;;;1.80;;
43519;SDS011;46848;51.980;5.918;2022-07-19T11:40:19;6.78;;;1.73;;
43519;SDS011;46848;51.980;5.918;2022-07-19T11:42:46;7.65;;;1.95;;
43519;SDS011;46848;51.980;5.918;2022-07-19T11:45:20;5.82;;;1.55;;
43519;SDS011;46848;51.980;5.918;2022-07-19T11:47:49;3.80;;;1.42;;
43519;SDS011;46848;51.980;5.918;2022-07-19T11:50:17;6.22;;;1.80;;
43519;SDS011;46848;51.980;5.918;2022-07-19T11:52:57;4.03;;;1.60;;
43519;SDS011;46848;51.980;5.918;2022-07-19T11:55:27;6.15;;;1.95;;
43519;SDS011;46848;51.980;5.918;2022-07-19T11:57:59;3.38;;;1.48;;
43519;SDS011;46848;51.980;5.918;2022-07-19T12:00:32;5.63;;;1.83;;
43519;SDS011;46848;51.980;5.918;2022-07-19T12:02:59;5.15;;;1.83;;
43519;SDS011;46848;51.980;5.918;2022-07-19T12:05:33;3.25;;;1.35;;
43519;SDS011;46848;51.980;5.918;2022-07-19T12:08:02;7.53;;;1.50;;
43519;SDS011;46848;51.980;5.918;2022-07-19T12:13:03;5.28;;;1.38;;
43519;SDS011;46848;51.980;5.918;2022-07-19T12:18:16;3.72;;;1.60;;
43519;SDS011;46848;51.980;5.918;2022-07-19T12:20:44;4.45;;;1.27;;
43519;SDS011;46848;51.980;5.918;2022-07-19T12:23:30;2.83;;;1.40;;
43519;SDS011;46848;51.980;5.918;2022-07-19T12:26:02;6.78;;;1.50;;
43519;SDS011;46848;51.980;5.918;2022-07-19T12:28:29;4.00;;;1.50;;
43519;SDS011;46848;51.980;5.918;2022-07-19T12:31:04;4.80;;;1.60;;
43519;SDS011;46848;51.980;5.918;2022-07-19T12:33:30;4.53;;;1.70;;
43519;SDS011;46848;51.980;5.918;2022-07-19T12:35:56;3.17;;;1.40;;
43519;SDS011;46848;51.980;5.918;2022-07-19T12:38:32;6.00;;;1.30;;
43519;SDS011;46848;51.980;5.918;2022-07-19T12:41:08;3.63;;;1.60;;
43519;SDS011;46848;51.980;5.918;2022-07-19T12:43:34;2.72;;;1.30;;
43519;SDS011;46848;51.980;5.918;2022-07-19T12:46:00;2.83;;;1.25;;
43519;SDS011;46848;51.980;5.918;2022-07-19T12:48:27;6.40;;;1.40;;
43519;SDS011;46848;51.980;5.918;2022-07-19T12:50:52;2.08;;;1.38;;
43519;SDS011;46848;51.980;5.918;2022-07-19T12:53:18;2.38;;;1.30;;
43519;SDS011;46848;51.980;5.918;2022-07-19T12:55:45;6.63;;;1.58;;
43519;SDS011;46848;51.980;5.918;2022-07-19T12:58:14;4.18;;;1.77;;
43519;SDS011;46848;51.980;5.918;2022-07-19T13:01:01;2.83;;;1.33;;
43519;SDS011;46848;51.980;5.918;2022-07-19T13:03:27;7.85;;;1.70;;
43519;SDS011;46848;51.980;5.918;2022-07-19T13:05:53;2.80;;;1.55;;
43519;SDS011;46848;51.980;5.918;2022-07-19T13:08:19;2.53;;;1.40;;
43519;SDS011;46848;51.980;5.918;2022-07-19T13:10:44;4.03;;;1.30;;
43519;SDS011;46848;51.980;5.918;2022-07-19T13:13:10;5.03;;;1.88;;
43519;SDS011;46848;51.980;5.918;2022-07-19T13:15:36;4.53;;;1.85;;
43519;SDS011;46848;51.980;5.918;2022-07-19T13:18:02;2.75;;;1.50;;
43519;SDS011;46848;51.980;5.918;2022-07-19T13:20:27;5.13;;;1.60;;
43519;SDS011;46848;51.980;5.918;2022-07-19T13:22:53;5.40;;;1.50;;
43519;SDS011;46848;51.980;5.918;2022-07-19T13:25:19;3.70;;;1.52;;
43519;SDS011;46848;51.980;5.918;2022-07-19T13:27:46;4.57;;;1.63;;
43519;SDS011;46848;51.980;5.918;2022-07-19T13:30:11;2.00;;;1.10;;
43519;SDS011;46848;51.980;5.918;2022-07-19T13:32:38;3.25;;;1.40;;
43519;SDS011;46848;51.980;5.918;2022-07-19T13:35:05;2.67;;;1.20;;
43519;SDS011;46848;51.980;5.918;2022-07-19T13:37:31;3.20;;;1.20;;
43519;SDS011;46848;51.980;5.918;2022-07-19T13:39:57;3.88;;;1.20;;
43519;SDS011;46848;51.980;5.918;2022-07-19T13:42:22;3.70;;;1.35;;
43519;SDS011;46848;51.980;5.918;2022-07-19T13:44:48;2.35;;;1.20;;
43519;SDS011;46848;51.980;5.918;2022-07-19T13:47:14;3.38;;;1.02;;
43519;SDS011;46848;51.980;5.918;2022-07-19T13:49:40;3.67;;;1.13;;
43519;SDS011;46848;51.980;5.918;2022-07-19T13:52:06;3.97;;;1.05;;
43519;SDS011;46848;51.980;5.918;2022-07-19T13:54:31;4.10;;;1.40;;
43519;SDS011;46848;51.980;5.918;2022-07-19T13:56:57;4.20;;;1.08;;
43519;SDS011;46848;51.980;5.918;2022-07-19T13:59:23;4.35;;;1.42;;
43519;SDS011;46848;51.980;5.918;2022-07-19T14:01:49;4.35;;;1.08;;
43519;SDS011;46848;51.980;5.918;2022-07-19T14:04:15;2.40;;;1.13;;
43519;SDS011;46848;51.980;5.918;2022-07-19T14:06:40;3.80;;;1.48;;
43519;SDS011;46848;51.980;5.918;2022-07-19T14:09:06;5.13;;;1.05;;
43519;SDS011;46848;51.980;5.918;2022-07-19T14:11:32;3.38;;;1.15;;
43519;SDS011;46848;51.980;5.918;2022-07-19T14:13:57;3.85;;;1.20;;
43519;SDS011;46848;51.980;5.918;2022-07-19T14:16:23;2.53;;;1.08;;
43519;SDS011;46848;51.980;5.918;2022-07-19T14:18:48;6.82;;;1.50;;
43519;SDS011;46848;51.980;5.918;2022-07-19T14:21:14;2.88;;;1.23;;
43519;SDS011;46848;51.980;5.918;2022-07-19T14:23:40;1.90;;;1.10;;
43519;SDS011;46848;51.980;5.918;2022-07-19T14:26:06;3.70;;;1.77;;
43519;SDS011;46848;51.980;5.918;2022-07-19T14:28:31;2.22;;;1.30;;
43519;SDS011;46848;51.980;5.918;2022-07-19T14:30:57;4.45;;;1.70;;
43519;SDS011;46848;51.980;5.918;2022-07-19T14:33:23;3.08;;;1.50;;
43519;SDS011;46848;51.980;5.918;2022-07-19T14:35:50;3.85;;;1.58;;
43519;SDS011;46848;51.980;5.918;2022-07-19T14:38:16;4.97;;;1.52;;
43519;SDS011;46848;51.980;5.918;2022-07-19T14:40:42;3.72;;;1.35;;
43519;SDS011;46848;51.980;5.918;2022-07-19T14:43:08;4.25;;;1.50;;
43519;SDS011;46848;51.980;5.918;2022-07-19T14:45:34;3.42;;;1.50;;
43519;SDS011;46848;51.980;5.918;2022-07-19T14:47:59;5.35;;;1.83;;
43519;SDS011;46848;51.980;5.918;2022-07-19T14:50:25;5.13;;;1.42;;
43519;SDS011;46848;51.980;5.918;2022-07-19T14:52:51;4.50;;;1.45;;
43519;SDS011;46848;51.980;5.918;2022-07-19T14:55:17;5.20;;;1.70;;
43519;SDS011;46848;51.980;5.918;2022-07-19T14:57:43;5.05;;;1.67;;
43519;SDS011;46848;51.980;5.918;2022-07-19T15:00:09;3.50;;;1.50;;
43519;SDS011;46848;51.980;5.918;2022-07-19T15:02:37;5.60;;;1.30;;
43519;SDS011;46848;51.980;5.918;2022-07-19T15:05:04;3.00;;;1.38;;
43519;SDS011;46848;51.980;5.918;2022-07-19T15:07:30;4.63;;;1.80;;
43519;SDS011;46848;51.980;5.918;2022-07-19T15:09:56;4.25;;;1.40;;
43519;SDS011;46848;51.980;5.918;2022-07-19T15:12:22;4.18;;;1.50;;
43519;SDS011;46848;51.980;5.918;2022-07-19T15:14:48;5.53;;;1.60;;
43519;SDS011;46848;51.980;5.918;2022-07-19T15:17:15;3.97;;;1.40;;
43519;SDS011;46848;51.980;5.918;2022-07-19T15:19:41;4.88;;;1.58;;
43519;SDS011;46848;51.980;5.918;2022-07-19T15:22:07;6.38;;;1.60;;
43519;SDS011;46848;51.980;5.918;2022-07-19T15:24:33;3.70;;;1.48;;
43519;SDS011;46848;51.980;5.918;2022-07-19T15:26:58;5.97;;;1.58;;
43519;SDS011;46848;51.980;5.918;2022-07-19T15:29:24;4.00;;;1.88;;